createdAt,value
2018-08-03T00:01:49.415Z,14.07
2018-08-03T00:04:18.735Z,14.47
2018-08-03T00:06:47.337Z,15.13
2018-08-03T00:09:16.949Z,13.00
2018-08-03T00:11:45.831Z,13.47
2018-08-03T00:14:15.826Z,13.30
2018-08-03T00:16:45.670Z,13.10
2018-08-03T00:19:15.038Z,12.47
2018-08-03T00:21:43.710Z,13.03
2018-08-03T00:24:14.161Z,14.23
2018-08-03T00:26:43.507Z,14.13
2018-08-03T00:29:12.390Z,14.73
2018-08-03T00:31:42.526Z,14.20
2018-08-03T00:34:12.155Z,13.90
2018-08-03T00:36:40.860Z,13.80
2018-08-03T00:39:11.322Z,13.77
2018-08-03T00:41:40.530Z,13.77
2018-08-03T00:44:11.416Z,14.73
2018-08-03T00:46:40.630Z,14.13
2018-08-03T00:49:09.339Z,13.00
2018-08-03T00:51:37.989Z,13.23
2018-08-03T00:54:06.693Z,13.40
2018-08-03T00:56:36.162Z,14.20
2018-08-03T00:59:06.839Z,13.90
2018-08-03T01:01:36.365Z,14.30
2018-08-03T01:04:06.190Z,13.30
2018-08-03T01:06:34.897Z,14.60
2018-08-03T01:09:03.807Z,13.80
2018-08-03T01:11:32.535Z,13.83
2018-08-03T01:14:01.189Z,14.70
2018-08-03T01:16:32.251Z,14.27
2018-08-03T01:19:01.471Z,14.93
2018-08-03T01:21:30.713Z,14.10
2018-08-03T01:24:00.254Z,13.23
2018-08-03T01:26:30.095Z,14.00
2018-08-03T01:28:58.772Z,14.03
2018-08-03T01:31:27.518Z,13.97
2018-08-03T01:33:56.165Z,14.47
2018-08-03T01:36:24.930Z,14.33
2018-08-03T01:38:54.441Z,13.83
2018-08-03T01:41:23.452Z,14.27
2018-08-03T01:43:52.650Z,13.83
2018-08-03T01:46:22.954Z,13.63
2018-08-03T01:48:52.299Z,13.90
2018-08-03T01:51:21.496Z,14.80
2018-08-03T01:53:51.057Z,15.30
2018-08-03T01:56:19.739Z,14.80
2018-08-03T01:58:49.426Z,15.60
2018-08-03T02:01:18.929Z,14.60
2018-08-03T02:03:47.831Z,14.67
2018-08-03T02:06:18.357Z,13.90
2018-08-03T02:08:48.253Z,14.90
2018-08-03T02:11:17.628Z,13.97
2018-08-03T02:13:47.738Z,15.00
2018-08-03T02:16:17.799Z,15.03
2018-08-03T02:18:47.232Z,16.00
2018-08-03T02:21:16.733Z,15.87
2018-08-03T02:23:46.007Z,15.50
2018-08-03T02:26:15.214Z,15.20
2018-08-03T02:28:43.923Z,15.77
2018-08-03T02:31:13.038Z,15.40
2018-08-03T02:33:42.364Z,14.63
2018-08-03T02:36:12.857Z,14.60
2018-08-03T02:38:42.651Z,15.73
2018-08-03T02:41:12.253Z,15.13
2018-08-03T02:43:41.673Z,16.57
2018-08-03T02:46:10.358Z,15.33
2018-08-03T02:48:41.375Z,14.07
2018-08-03T02:51:10.585Z,15.43
2018-08-03T02:53:40.805Z,14.43
2018-08-03T02:56:09.443Z,14.40
2018-08-03T02:58:38.608Z,15.77
2018-08-03T03:01:08.257Z,15.37
2018-08-03T03:03:37.652Z,15.77
2018-08-03T03:06:07.432Z,15.70
2018-08-03T03:08:36.767Z,15.87
2018-08-03T03:11:06.340Z,17.33
2018-08-03T03:13:35.937Z,17.97
2018-08-03T03:16:05.412Z,17.43
2018-08-03T03:18:34.584Z,19.10
2018-08-03T03:21:03.390Z,17.83
2018-08-03T03:23:33.158Z,18.23
2018-08-03T03:26:03.078Z,16.67
2018-08-03T03:28:32.484Z,17.27
2018-08-03T03:31:01.961Z,17.23
2018-08-03T03:33:31.212Z,17.03
2018-08-03T03:36:00.469Z,16.77
2018-08-03T03:38:29.278Z,16.20
2018-08-03T03:40:58.751Z,16.60
2018-08-03T03:43:29.265Z,16.20
2018-08-03T03:45:58.930Z,14.90
2018-08-03T03:48:29.367Z,16.60
2018-08-03T03:50:59.450Z,15.70
2018-08-03T03:53:28.034Z,15.93
2018-08-03T03:55:56.635Z,16.70
2018-08-03T03:58:25.884Z,16.30
2018-08-03T04:00:54.731Z,16.33
2018-08-03T04:03:23.571Z,16.87
2018-08-03T04:05:52.352Z,16.50
2018-08-03T04:08:21.243Z,17.43
2018-08-03T04:10:49.945Z,17.43
2018-08-03T04:13:19.200Z,17.20
2018-08-03T04:15:47.910Z,16.87
2018-08-03T04:18:21.554Z,17.43
2018-08-03T04:20:51.523Z,17.20
2018-08-03T04:23:21.569Z,16.10
2018-08-03T04:25:51.575Z,15.80
2018-08-03T04:28:20.834Z,15.80
2018-08-03T04:30:50.994Z,16.43
2018-08-03T04:33:20.505Z,15.63
2018-08-03T04:35:49.225Z,16.83
2018-08-03T04:38:17.803Z,16.27
2018-08-03T04:40:47.030Z,16.27
2018-08-03T04:43:16.481Z,16.87
2018-08-03T04:45:45.875Z,16.50
2018-08-03T04:48:14.621Z,17.50
2018-08-03T04:50:44.324Z,16.90
2018-08-03T04:53:13.538Z,16.77
2018-08-03T04:55:43.015Z,17.07
2018-08-03T04:58:11.660Z,17.60
2018-08-03T05:00:40.298Z,17.80
2018-08-03T05:03:08.951Z,18.20
2018-08-03T05:05:37.600Z,17.60
2018-08-03T05:08:06.516Z,18.53
2018-08-03T05:10:35.180Z,18.93
2018-08-03T05:13:03.778Z,18.07
2018-08-03T05:15:32.435Z,18.77
2018-08-03T05:18:01.116Z,17.73
2018-08-03T05:20:30.378Z,18.10
2018-08-03T05:22:58.982Z,19.80
2018-08-03T05:25:27.736Z,21.07
2018-08-03T05:27:56.329Z,21.00
2018-08-03T05:30:25.098Z,20.83
2018-08-03T05:32:53.675Z,20.83
2018-08-03T05:35:22.336Z,20.07
2018-08-03T05:37:52.214Z,19.93
2018-08-03T05:40:22.143Z,22.10
2018-08-03T05:42:51.593Z,21.17
2018-08-03T05:45:21.094Z,21.47
2018-08-03T05:47:50.943Z,20.80
2018-08-03T05:50:19.902Z,21.00
2018-08-03T05:52:48.652Z,21.13
2018-08-03T05:55:18.855Z,21.67
2018-08-03T05:57:47.572Z,22.23
2018-08-03T06:00:16.222Z,22.97
2018-08-03T06:02:44.903Z,24.00
2018-08-03T06:05:14.505Z,21.10
2018-08-03T06:07:43.114Z,21.50
2018-08-03T06:10:12.563Z,21.83
2018-08-03T06:12:41.779Z,21.70
2018-08-03T06:15:11.502Z,22.40
2018-08-03T06:17:41.072Z,20.83
2018-08-03T06:20:12.107Z,21.23
2018-08-03T06:22:41.099Z,20.13
2018-08-03T06:25:10.498Z,21.20
2018-08-03T06:27:39.185Z,20.43
2018-08-03T06:30:10.142Z,21.43
2018-08-03T06:32:39.314Z,21.77
2018-08-03T06:35:08.248Z,20.50
2018-08-03T06:37:37.222Z,22.60
2018-08-03T06:40:05.916Z,21.53
2018-08-03T06:42:34.605Z,22.13
2018-08-03T06:45:03.307Z,21.80
2018-08-03T06:47:31.928Z,22.20
2018-08-03T06:50:00.582Z,23.47
2018-08-03T06:52:29.859Z,21.50
2018-08-03T06:54:58.529Z,21.40
2018-08-03T06:57:27.929Z,22.77
2018-08-03T06:59:56.532Z,22.20
2018-08-03T07:02:25.155Z,20.10
2018-08-03T07:04:54.181Z,21.20
2018-08-03T07:07:22.799Z,22.03
2018-08-03T07:09:51.461Z,22.13
2018-08-03T07:12:20.206Z,21.47
2018-08-03T07:14:48.868Z,21.50
2018-08-03T07:17:17.520Z,21.77
2018-08-03T07:19:46.171Z,20.30
2018-08-03T07:22:14.874Z,21.30
2018-08-03T07:24:44.236Z,19.53
2018-08-03T07:27:13.511Z,18.23
2018-08-03T07:29:42.174Z,19.57
2018-08-03T07:32:10.819Z,19.30
2018-08-03T07:34:39.474Z,18.20
2018-08-03T07:37:08.181Z,18.10
2018-08-03T07:39:37.751Z,17.47
2018-08-03T07:42:06.434Z,19.40
2018-08-03T07:44:35.106Z,17.30
2018-08-03T07:47:03.761Z,17.87
2018-08-03T07:49:32.450Z,17.60
2018-08-03T07:52:01.082Z,17.77
2018-08-03T07:54:29.782Z,17.10
2018-08-03T07:56:59.837Z,17.93
2018-08-03T07:59:28.742Z,16.90
2018-08-03T08:01:58.646Z,17.43
2018-08-03T08:04:27.941Z,16.30
2018-08-03T08:06:56.903Z,16.30
2018-08-03T08:09:26.286Z,17.70
2018-08-03T08:11:56.810Z,15.60
2018-08-03T08:14:26.817Z,15.37
2018-08-03T08:16:56.786Z,15.70
2018-08-03T08:19:26.201Z,16.37
2018-08-03T08:21:56.026Z,16.60
2018-08-03T08:24:25.360Z,14.90
2018-08-03T08:26:54.905Z,15.73
2018-08-03T08:29:24.487Z,16.67
2018-08-03T08:31:53.140Z,15.23
2018-08-03T08:34:21.795Z,15.50
2018-08-03T08:36:50.519Z,15.03
2018-08-03T08:39:19.301Z,15.67
2018-08-03T08:41:48.138Z,16.30
2018-08-03T08:44:16.791Z,15.20
2018-08-03T08:46:45.477Z,15.73
2018-08-03T08:49:14.206Z,15.20
2018-08-03T08:51:43.575Z,15.30
2018-08-03T08:54:13.216Z,15.10
2018-08-03T08:56:41.873Z,15.83
2018-08-03T08:59:10.616Z,14.60
2018-08-03T09:01:39.368Z,14.80
2018-08-03T09:04:08.225Z,14.40
2018-08-03T09:06:36.927Z,15.63
2018-08-03T09:09:08.339Z,14.40
2018-08-03T09:11:37.082Z,14.30
2018-08-03T09:14:05.760Z,14.73
2018-08-03T09:16:34.433Z,14.67
2018-08-03T09:19:03.400Z,14.33
2018-08-03T09:21:32.295Z,15.27
2018-08-03T09:24:00.936Z,15.03
2018-08-03T09:26:30.300Z,14.23
2018-08-03T09:28:58.948Z,14.20
2018-08-03T09:31:27.600Z,13.33
2018-08-03T09:33:56.235Z,14.60
2018-08-03T09:36:24.897Z,14.97
2018-08-03T09:38:53.664Z,14.40
2018-08-03T09:41:22.981Z,14.07
2018-08-03T09:43:51.652Z,14.70
2018-08-03T09:46:20.333Z,14.43
2018-08-03T09:48:49.242Z,13.47
2018-08-03T09:51:18.239Z,13.73
2018-08-03T09:53:47.624Z,14.17
2018-08-03T09:56:16.270Z,13.77
2018-08-03T09:58:45.504Z,13.63
2018-08-03T10:01:14.221Z,14.97
2018-08-03T10:03:43.461Z,13.43
2018-08-03T10:06:12.951Z,13.37
2018-08-03T10:08:41.737Z,12.30
2018-08-03T10:11:10.622Z,13.00
2018-08-03T10:13:39.456Z,12.77
2018-08-03T10:16:08.153Z,12.37
2018-08-03T10:18:36.835Z,12.90
2018-08-03T10:21:05.836Z,12.50
2018-08-03T10:23:34.440Z,12.53
2018-08-03T10:26:03.733Z,13.03
2018-08-03T10:28:32.504Z,13.20
2018-08-03T10:31:02.047Z,12.50
2018-08-03T10:33:30.677Z,12.70
2018-08-03T10:35:59.824Z,14.10
2018-08-03T10:38:28.576Z,13.93
2018-08-03T10:40:57.370Z,14.00
2018-08-03T10:43:26.467Z,13.30
2018-08-03T10:45:57.092Z,13.90
2018-08-03T10:48:25.749Z,13.03
2018-08-03T10:50:55.989Z,13.30
2018-08-03T10:53:24.729Z,14.37
2018-08-03T10:55:54.895Z,13.53
2018-08-03T10:58:23.725Z,13.30
2018-08-03T11:00:52.721Z,13.20
2018-08-03T11:03:22.242Z,13.10
2018-08-03T11:05:50.889Z,13.00
2018-08-03T11:08:19.570Z,14.30
2018-08-03T11:10:48.742Z,13.20
2018-08-03T11:13:17.355Z,15.23
2018-08-03T11:15:46.045Z,14.03
2018-08-03T11:18:14.726Z,13.20
2018-08-03T11:20:43.859Z,13.00
2018-08-03T11:23:12.492Z,13.10
2018-08-03T11:25:41.699Z,13.17
2018-08-03T11:30:45.968Z,12.80
2018-08-03T11:33:14.997Z,12.70
2018-08-03T11:35:43.683Z,13.40
2018-08-03T11:38:12.511Z,12.50
2018-08-03T11:40:41.592Z,14.30
2018-08-03T11:43:10.420Z,12.67
2018-08-03T11:45:39.388Z,13.37
2018-08-03T11:48:08.708Z,11.80
2018-08-03T11:50:37.539Z,12.13
2018-08-03T11:53:06.241Z,10.67
2018-08-03T11:55:35.834Z,10.93
2018-08-03T11:58:05.399Z,10.80
2018-08-03T12:00:34.101Z,10.80
2018-08-03T12:03:03.693Z,10.43
2018-08-03T12:05:32.947Z,10.90
2018-08-03T12:08:02.074Z,10.37
2018-08-03T12:10:30.738Z,11.10
2018-08-03T12:12:59.650Z,11.00
2018-08-03T12:15:28.504Z,10.67
2018-08-03T12:17:57.360Z,11.33
2018-08-03T12:20:26.775Z,11.07
2018-08-03T12:22:55.617Z,10.73
2018-08-03T12:25:24.367Z,10.50
2018-08-03T12:27:53.051Z,10.23
2018-08-03T12:30:22.535Z,10.17
2018-08-03T12:32:51.326Z,10.53
2018-08-03T12:35:20.383Z,10.07
2018-08-03T12:37:49.092Z,10.47
2018-08-03T12:40:18.084Z,10.97
2018-08-03T12:42:47.552Z,11.20
2018-08-03T12:45:16.992Z,11.27
2018-08-03T12:47:46.451Z,10.80
2018-08-03T12:50:16.047Z,11.00
2018-08-03T12:52:45.583Z,10.60
2018-08-03T12:55:14.305Z,10.50
2018-08-03T12:57:43.935Z,11.40
2018-08-03T13:00:13.161Z,11.30
2018-08-03T13:02:41.891Z,11.20
2018-08-03T13:05:10.592Z,10.23
2018-08-03T13:07:40.139Z,9.93
2018-08-03T13:10:09.042Z,10.13
2018-08-03T13:12:38.131Z,10.70
2018-08-03T13:15:08.181Z,10.10
2018-08-03T13:17:37.089Z,11.10
2018-08-03T13:20:07.985Z,10.90
2018-08-03T13:22:37.532Z,10.97
2018-08-03T13:25:06.573Z,11.23
2018-08-03T13:27:35.209Z,9.43
2018-08-03T13:30:04.008Z,10.17
2018-08-03T13:32:33.421Z,10.00
2018-08-03T13:35:02.054Z,10.57
2018-08-03T13:37:30.828Z,10.37
2018-08-03T13:39:59.556Z,10.40
2018-08-03T13:42:28.544Z,10.33
2018-08-03T13:44:57.240Z,10.40
2018-08-03T13:47:25.873Z,10.40
2018-08-03T13:49:54.587Z,10.10
2018-08-03T13:52:23.260Z,10.00
2018-08-03T13:54:51.900Z,10.63
2018-08-03T13:57:20.883Z,10.53
2018-08-03T13:59:49.484Z,9.90
2018-08-03T14:02:20.581Z,9.70
2018-08-03T14:04:49.188Z,10.00
2018-08-03T14:07:17.868Z,9.97
2018-08-03T14:09:46.737Z,9.37
2018-08-03T14:12:15.404Z,8.40
2018-08-03T14:14:44.040Z,9.47
2018-08-03T14:17:14.338Z,9.70
2018-08-03T14:19:45.206Z,10.30
2018-08-03T14:22:14.042Z,10.47
2018-08-03T14:24:42.686Z,10.73
2018-08-03T14:27:11.357Z,9.60
2018-08-03T14:29:40.087Z,10.00
2018-08-03T14:32:09.942Z,10.10
2018-08-03T14:34:38.619Z,10.20
2018-08-03T14:37:07.924Z,9.43
2018-08-03T14:39:36.529Z,9.70
2018-08-03T14:42:05.950Z,9.47
2018-08-03T14:44:35.586Z,9.23
2018-08-03T14:47:05.629Z,10.07
2018-08-03T14:49:34.942Z,9.97
2018-08-03T14:52:05.315Z,10.53
2018-08-03T14:54:33.969Z,10.17
2018-08-03T14:57:03.420Z,10.43
2018-08-03T14:59:32.224Z,10.10
2018-08-03T15:02:00.937Z,10.23
2018-08-03T15:04:29.608Z,10.20
2018-08-03T15:06:58.491Z,10.00
2018-08-03T15:09:27.204Z,8.87
2018-08-03T15:11:55.951Z,9.40
2018-08-03T15:14:25.495Z,9.07
2018-08-03T15:16:54.186Z,9.30
2018-08-03T15:19:23.748Z,9.33
2018-08-03T15:21:52.499Z,10.07
2018-08-03T15:24:22.082Z,9.70
2018-08-03T15:26:50.965Z,9.40
2018-08-03T15:29:19.628Z,10.20
2018-08-03T15:31:48.885Z,9.60
2018-08-03T15:34:17.651Z,9.37
2018-08-03T15:36:46.462Z,9.90
2018-08-03T15:39:15.039Z,9.40
2018-08-03T15:41:44.218Z,9.50
2018-08-03T15:44:13.818Z,8.93
2018-08-03T15:46:43.885Z,9.90
2018-08-03T15:49:12.631Z,10.73
2018-08-03T15:51:41.418Z,9.13
2018-08-03T15:54:10.021Z,9.03
2018-08-03T15:56:38.706Z,9.43
2018-08-03T15:59:07.383Z,9.20
2018-08-03T16:01:36.060Z,9.53
2018-08-03T16:04:04.889Z,9.20
2018-08-03T16:06:36.724Z,9.40
2018-08-03T16:09:08.828Z,10.10
2018-08-03T16:11:37.470Z,9.60
2018-08-03T16:14:07.561Z,9.17
2018-08-03T16:16:36.259Z,9.20
2018-08-03T16:19:04.919Z,9.40
2018-08-03T16:21:34.548Z,9.80
2018-08-03T16:24:03.617Z,8.40
2018-08-03T16:26:33.279Z,9.80
2018-08-03T16:29:01.951Z,9.23
2018-08-03T16:31:31.017Z,9.67
2018-08-03T16:33:59.909Z,10.67
2018-08-03T16:36:28.650Z,10.87
2018-08-03T16:39:03.750Z,10.80
2018-08-03T16:41:32.615Z,10.23
2018-08-03T16:44:01.346Z,10.00
2018-08-03T16:46:30.264Z,10.53
2018-08-03T16:48:58.893Z,10.53
2018-08-03T16:51:27.967Z,10.70
2018-08-03T16:53:56.694Z,10.67
2018-08-03T16:56:25.358Z,10.30
2018-08-03T16:58:54.146Z,10.77
2018-08-03T17:01:22.950Z,10.83
2018-08-03T17:03:51.630Z,9.30
2018-08-03T17:06:20.308Z,11.03
2018-08-03T17:08:48.938Z,10.00
2018-08-03T17:11:17.600Z,9.60
2018-08-03T17:13:46.274Z,10.27
2018-08-03T17:16:14.950Z,11.33
2018-08-03T17:18:44.329Z,10.40
2018-08-03T17:21:13.131Z,10.40
2018-08-03T17:23:41.836Z,9.93
2018-08-03T17:26:10.458Z,9.93
2018-08-03T17:28:39.275Z,10.40
2018-08-03T17:31:08.482Z,10.77
2018-08-03T17:33:37.147Z,10.23
2018-08-03T17:36:06.175Z,10.40
2018-08-03T17:38:34.788Z,10.87
2018-08-03T17:41:04.173Z,11.03
2018-08-03T17:43:32.871Z,11.10
2018-08-03T17:46:01.528Z,10.93
2018-08-03T17:48:30.873Z,9.90
2018-08-03T17:51:00.646Z,9.83
2018-08-03T17:53:29.380Z,9.80
2018-08-03T17:55:59.017Z,10.23
2018-08-03T17:58:28.370Z,11.33
2018-08-03T18:00:57.059Z,10.50
2018-08-03T18:03:25.769Z,10.77
2018-08-03T18:05:54.517Z,10.53
2018-08-03T18:08:23.172Z,10.90
2018-08-03T18:10:52.636Z,10.03
2018-08-03T18:13:21.307Z,10.10
2018-08-03T18:15:50.019Z,10.73
2018-08-03T18:18:18.577Z,10.97
2018-08-03T18:20:47.297Z,10.70
2018-08-03T18:23:15.965Z,11.27
2018-08-03T18:25:49.021Z,10.40
2018-08-03T18:28:18.342Z,11.10
2018-08-03T18:30:47.112Z,11.00
2018-08-03T18:33:15.745Z,9.90
2018-08-03T18:35:45.018Z,10.20
2018-08-03T18:38:13.979Z,11.17
2018-08-03T18:40:42.586Z,11.73
2018-08-03T18:43:11.609Z,9.93
2018-08-03T18:45:40.474Z,10.73
2018-08-03T18:48:09.225Z,10.83
2018-08-03T18:50:37.891Z,10.60
2018-08-03T18:53:06.721Z,10.50
2018-08-03T18:55:36.433Z,11.80
2018-08-03T18:58:05.226Z,10.50
2018-08-03T19:00:33.942Z,10.60
2018-08-03T19:03:03.465Z,11.13
2018-08-03T19:05:32.831Z,11.23
2018-08-03T19:08:01.611Z,11.10
2018-08-03T19:10:30.342Z,12.00
2018-08-03T19:12:59.017Z,11.90
2018-08-03T19:15:28.262Z,12.20
2018-08-03T19:17:56.925Z,12.23
2018-08-03T19:20:25.602Z,13.30
2018-08-03T19:22:55.100Z,11.70
2018-08-03T19:25:24.176Z,14.50
2018-08-03T19:27:52.908Z,19.13
2018-08-03T19:30:21.575Z,15.90
2018-08-03T19:32:50.849Z,13.07
2018-08-03T19:35:19.603Z,12.67
2018-08-03T19:37:48.670Z,12.13
2018-08-03T19:40:17.987Z,12.83
2018-08-03T19:42:46.845Z,12.60
2018-08-03T19:45:15.968Z,11.53
2018-08-03T19:47:44.711Z,12.47
2018-08-03T19:50:13.645Z,18.63
2018-08-03T19:52:42.834Z,13.40
2018-08-03T19:55:11.557Z,13.60
2018-08-03T19:57:40.766Z,13.13
2018-08-03T20:00:11.654Z,12.60
2018-08-03T20:02:41.012Z,12.60
2018-08-03T20:05:11.344Z,12.40
2018-08-03T20:07:39.971Z,13.67
2018-08-03T20:10:09.469Z,12.93
2018-08-03T20:12:38.118Z,13.20
2018-08-03T20:15:07.449Z,13.23
2018-08-03T20:17:36.166Z,13.23
2018-08-03T20:20:04.970Z,12.50
2018-08-03T20:22:33.694Z,12.47
2018-08-03T20:25:02.393Z,12.67
2018-08-03T20:27:31.249Z,14.93
2018-08-03T20:29:59.988Z,14.50
2018-08-03T20:32:28.681Z,13.30
2018-08-03T20:34:57.518Z,13.10
2018-08-03T20:37:26.491Z,13.40
2018-08-03T20:39:55.312Z,13.47
2018-08-03T20:42:24.085Z,14.03
2018-08-03T20:44:53.124Z,14.30
2018-08-03T20:47:21.848Z,14.10
2018-08-03T20:49:50.693Z,14.00
2018-08-03T20:52:19.659Z,13.60
2018-08-03T20:54:49.236Z,13.97
2018-08-03T20:57:18.203Z,13.93
2018-08-03T20:59:46.879Z,14.33
2018-08-03T21:02:15.477Z,15.07
2018-08-03T21:04:44.470Z,14.40
2018-08-03T21:07:13.115Z,13.53
2018-08-03T21:09:41.876Z,13.67
2018-08-03T21:12:10.619Z,13.20
2018-08-03T21:14:40.075Z,14.10
2018-08-03T21:17:08.723Z,14.07
2018-08-03T21:19:37.361Z,14.20
2018-08-03T21:22:06.047Z,14.70
2018-08-03T21:24:34.849Z,14.93
2018-08-03T21:27:03.829Z,15.20
2018-08-03T21:29:32.519Z,14.63
2018-08-03T21:32:01.132Z,14.40
2018-08-03T21:34:29.771Z,14.30
2018-08-03T21:36:58.519Z,13.57
2018-08-03T21:39:27.213Z,14.37
2018-08-03T21:41:55.885Z,14.63
2018-08-03T21:44:25.226Z,14.70
2018-08-03T21:46:54.633Z,15.67
2018-08-03T21:49:23.262Z,14.97
2018-08-03T21:51:51.902Z,15.00
2018-08-03T21:54:21.421Z,16.37
2018-08-03T21:56:50.758Z,16.37
2018-08-03T21:59:19.378Z,16.97
2018-08-03T22:01:48.952Z,17.20
2018-08-03T22:04:17.577Z,14.90
2018-08-03T22:06:46.489Z,15.50
2018-08-03T22:09:15.100Z,15.40
2018-08-03T22:11:43.841Z,14.43
2018-08-03T22:14:12.518Z,15.73
2018-08-03T22:16:41.164Z,15.20
2018-08-03T22:19:09.809Z,14.90
2018-08-03T22:21:38.421Z,15.00
2018-08-03T22:24:07.064Z,15.30
2018-08-03T22:26:36.551Z,16.77
2018-08-03T22:29:05.327Z,15.37
2018-08-03T22:31:34.513Z,15.07
2018-08-03T22:34:03.898Z,14.47
2018-08-03T22:36:32.582Z,15.50
2018-08-03T22:39:01.708Z,15.63
2018-08-03T22:41:30.720Z,15.20
2018-08-03T22:43:59.414Z,15.57
2018-08-03T22:46:28.082Z,16.70
2018-08-03T22:48:56.732Z,17.03
2018-08-03T22:51:25.410Z,16.93
2018-08-03T22:53:54.714Z,15.90
2018-08-03T22:56:23.333Z,16.90
2018-08-03T22:58:52.710Z,16.97
2018-08-03T23:01:21.433Z,16.87
2018-08-03T23:03:50.256Z,16.70
2018-08-03T23:06:19.118Z,17.13
2018-08-03T23:08:48.906Z,16.47
2018-08-03T23:11:18.337Z,17.67
2018-08-03T23:13:47.010Z,16.80
2018-08-03T23:16:15.666Z,17.77
2018-08-03T23:18:44.331Z,16.60
2018-08-03T23:21:12.990Z,17.07
2018-08-03T23:23:41.711Z,15.70
2018-08-03T23:26:10.409Z,15.80
2018-08-03T23:28:39.212Z,16.87
2018-08-03T23:31:07.980Z,16.37
2018-08-03T23:33:37.327Z,18.03
2018-08-03T23:36:06.179Z,16.70
2018-08-03T23:38:34.788Z,16.50
2018-08-03T23:41:03.472Z,18.10
2018-08-03T23:43:32.868Z,17.60
2018-08-03T23:46:01.680Z,15.97
2018-08-03T23:48:30.294Z,17.60
2018-08-03T23:50:59.193Z,16.53
2018-08-03T23:53:28.318Z,15.43
2018-08-03T23:55:56.927Z,16.90
2018-08-03T23:58:25.625Z,16.60
